sensor_id;sensor_type;location;lat;lon;timestamp;P1;durP1;ratioP1;P2;durP2;ratioP2
75356;SDS011;63946;51.986;5.930;2024-03-22T06:15:40;23.65;;;13.40;;
75356;SDS011;63946;51.986;5.930;2024-03-22T06:18:13;25.20;;;14.52;;
75356;SDS011;63946;51.986;5.930;2024-03-22T06:20:39;24.08;;;14.73;;
75356;SDS011;63946;51.986;5.930;2024-03-22T06:23:05;25.70;;;15.30;;
75356;SDS011;63946;51.986;5.930;2024-03-22T06:25:33;23.80;;;12.75;;
75356;SDS011;63946;51.986;5.930;2024-03-22T06:27:59;28.58;;;16.45;;
75356;SDS011;63946;51.986;5.930;2024-03-22T06:30:25;23.60;;;14.82;;
75356;SDS011;63946;51.986;5.930;2024-03-22T06:32:52;21.50;;;12.70;;
75356;SDS011;63946;51.986;5.930;2024-03-22T06:35:21;23.50;;;13.77;;
75356;SDS011;63946;51.986;5.930;2024-03-22T06:37:47;23.52;;;13.52;;
75356;SDS011;63946;51.986;5.930;2024-03-22T06:40:14;26.52;;;14.18;;
75356;SDS011;63946;51.986;5.930;2024-03-22T06:42:41;24.30;;;14.68;;
75356;SDS011;63946;51.986;5.930;2024-03-22T06:45:07;24.20;;;14.15;;
75356;SDS011;63946;51.986;5.930;2024-03-22T06:47:33;22.60;;;13.93;;
75356;SDS011;63946;51.986;5.930;2024-03-22T06:49:59;24.27;;;14.73;;
75356;SDS011;63946;51.986;5.930;2024-03-22T06:52:25;22.52;;;13.20;;
75356;SDS011;63946;51.986;5.930;2024-03-22T06:54:51;24.05;;;13.85;;
75356;SDS011;63946;51.986;5.930;2024-03-22T06:57:18;19.75;;;12.18;;
75356;SDS011;63946;51.986;5.930;2024-03-22T06:59:44;24.27;;;13.85;;
75356;SDS011;63946;51.986;5.930;2024-03-22T07:02:10;21.05;;;13.27;;
75356;SDS011;63946;51.986;5.930;2024-03-22T07:04:36;21.15;;;12.80;;
75356;SDS011;63946;51.986;5.930;2024-03-22T07:07:03;25.10;;;13.77;;
75356;SDS011;63946;51.986;5.930;2024-03-22T07:09:29;20.95;;;13.43;;
75356;SDS011;63946;51.986;5.930;2024-03-22T07:11:55;22.45;;;13.30;;
75356;SDS011;63946;51.986;5.930;2024-03-22T07:14:21;24.40;;;13.18;;
75356;SDS011;63946;51.986;5.930;2024-03-22T07:16:47;23.55;;;13.40;;
75356;SDS011;63946;51.986;5.930;2024-03-22T07:19:13;20.83;;;13.32;;
75356;SDS011;63946;51.986;5.930;2024-03-22T07:21:39;26.35;;;15.18;;
75356;SDS011;63946;51.986;5.930;2024-03-22T07:24:05;24.02;;;14.02;;
75356;SDS011;63946;51.986;5.930;2024-03-22T07:26:32;25.05;;;14.48;;
75356;SDS011;63946;51.986;5.930;2024-03-22T07:28:58;22.23;;;14.07;;
75356;SDS011;63946;51.986;5.930;2024-03-22T07:31:26;21.08;;;12.88;;
75356;SDS011;63946;51.986;5.930;2024-03-22T07:33:56;23.55;;;13.25;;
75356;SDS011;63946;51.986;5.930;2024-03-22T07:36:22;23.50;;;14.18;;
75356;SDS011;63946;51.986;5.930;2024-03-22T07:38:48;23.38;;;14.18;;
75356;SDS011;63946;51.986;5.930;2024-03-22T07:41:14;27.70;;;15.30;;
75356;SDS011;63946;51.986;5.930;2024-03-22T07:43:40;22.90;;;14.07;;
75356;SDS011;63946;51.986;5.930;2024-03-22T07:46:07;22.08;;;12.13;;
75356;SDS011;63946;51.986;5.930;2024-03-22T07:48:33;22.88;;;13.73;;
75356;SDS011;63946;51.986;5.930;2024-03-22T07:51:02;23.30;;;13.32;;
75356;SDS011;63946;51.986;5.930;2024-03-22T07:53:28;21.58;;;13.23;;
75356;SDS011;63946;51.986;5.930;2024-03-22T07:55:54;19.77;;;12.15;;
75356;SDS011;63946;51.986;5.930;2024-03-22T07:58:20;25.60;;;14.52;;
75356;SDS011;63946;51.986;5.930;2024-03-22T08:00:49;25.13;;;13.23;;
75356;SDS011;63946;51.986;5.930;2024-03-22T08:03:15;27.30;;;14.05;;
75356;SDS011;63946;51.986;5.930;2024-03-22T08:05:42;20.60;;;12.40;;
75356;SDS011;63946;51.986;5.930;2024-03-22T08:08:08;21.58;;;13.23;;
75356;SDS011;63946;51.986;5.930;2024-03-22T08:10:34;28.90;;;15.10;;
75356;SDS011;63946;51.986;5.930;2024-03-22T08:13:00;20.38;;;12.25;;
75356;SDS011;63946;51.986;5.930;2024-03-22T08:15:26;25.67;;;14.38;;
75356;SDS011;63946;51.986;5.930;2024-03-22T08:17:53;23.02;;;12.02;;
75356;SDS011;63946;51.986;5.930;2024-03-22T08:20:19;21.58;;;12.93;;
75356;SDS011;63946;51.986;5.930;2024-03-22T08:22:45;21.48;;;15.07;;
75356;SDS011;63946;51.986;5.930;2024-03-22T08:25:11;23.48;;;13.68;;
75356;SDS011;63946;51.986;5.930;2024-03-22T08:27:38;23.65;;;13.75;;
75356;SDS011;63946;51.986;5.930;2024-03-22T08:30:04;26.95;;;14.40;;
75356;SDS011;63946;51.986;5.930;2024-03-22T08:32:31;26.63;;;15.15;;
75356;SDS011;63946;51.986;5.930;2024-03-22T08:34:57;27.98;;;15.85;;
75356;SDS011;63946;51.986;5.930;2024-03-22T08:37:23;26.83;;;15.20;;
75356;SDS011;63946;51.986;5.930;2024-03-22T08:39:49;28.83;;;14.88;;
75356;SDS011;63946;51.986;5.930;2024-03-22T08:42:15;25.55;;;14.05;;
75356;SDS011;63946;51.986;5.930;2024-03-22T08:44:41;28.17;;;14.40;;
75356;SDS011;63946;51.986;5.930;2024-03-22T08:47:08;29.75;;;16.38;;
75356;SDS011;63946;51.986;5.930;2024-03-22T08:49:35;28.27;;;17.60;;
75356;SDS011;63946;51.986;5.930;2024-03-22T08:52:01;32.97;;;17.50;;
75356;SDS011;63946;51.986;5.930;2024-03-22T08:54:28;30.60;;;16.65;;
75356;SDS011;63946;51.986;5.930;2024-03-22T08:56:54;29.63;;;16.83;;
75356;SDS011;63946;51.986;5.930;2024-03-22T08:59:20;31.35;;;17.15;;
75356;SDS011;63946;51.986;5.930;2024-03-22T09:01:46;30.67;;;17.70;;
75356;SDS011;63946;51.986;5.930;2024-03-22T09:04:12;27.95;;;16.00;;
75356;SDS011;63946;51.986;5.930;2024-03-22T09:06:38;34.40;;;17.73;;
75356;SDS011;63946;51.986;5.930;2024-03-22T09:09:05;29.80;;;17.38;;
75356;SDS011;63946;51.986;5.930;2024-03-22T09:11:31;36.50;;;19.77;;
75356;SDS011;63946;51.986;5.930;2024-03-22T09:13:57;31.50;;;17.67;;
75356;SDS011;63946;51.986;5.930;2024-03-22T09:16:23;32.22;;;19.52;;
75356;SDS011;63946;51.986;5.930;2024-03-22T09:18:49;37.90;;;20.95;;
75356;SDS011;63946;51.986;5.930;2024-03-22T09:21:18;30.10;;;18.77;;
75356;SDS011;63946;51.986;5.930;2024-03-22T09:23:44;30.65;;;18.35;;
75356;SDS011;63946;51.986;5.930;2024-03-22T09:26:10;32.30;;;18.95;;
75356;SDS011;63946;51.986;5.930;2024-03-22T09:28:36;35.50;;;20.20;;
75356;SDS011;63946;51.986;5.930;2024-03-22T09:31:06;37.08;;;19.27;;
75356;SDS011;63946;51.986;5.930;2024-03-22T09:33:35;33.83;;;18.63;;
75356;SDS011;63946;51.986;5.930;2024-03-22T09:36:02;33.42;;;18.40;;
75356;SDS011;63946;51.986;5.930;2024-03-22T09:38:29;34.88;;;18.63;;
75356;SDS011;63946;51.986;5.930;2024-03-22T09:40:55;27.08;;;16.08;;
75356;SDS011;63946;51.986;5.930;2024-03-22T09:43:22;33.70;;;17.02;;
75356;SDS011;63946;51.986;5.930;2024-03-22T09:45:48;34.38;;;18.35;;
75356;SDS011;63946;51.986;5.930;2024-03-22T09:48:17;37.63;;;18.42;;
75356;SDS011;63946;51.986;5.930;2024-03-22T09:50:47;33.15;;;19.13;;
75356;SDS011;63946;51.986;5.930;2024-03-22T09:53:20;31.33;;;17.67;;
75356;SDS011;63946;51.986;5.930;2024-03-22T09:55:47;33.50;;;17.98;;
75356;SDS011;63946;51.986;5.930;2024-03-22T09:58:14;41.70;;;20.08;;
75356;SDS011;63946;51.986;5.930;2024-03-22T10:00:41;33.50;;;18.80;;
75356;SDS011;63946;51.986;5.930;2024-03-22T10:03:08;30.58;;;17.58;;
75356;SDS011;63946;51.986;5.930;2024-03-22T10:05:38;29.63;;;17.30;;
75356;SDS011;63946;51.986;5.930;2024-03-22T10:08:04;32.60;;;17.92;;
75356;SDS011;63946;51.986;5.930;2024-03-22T10:10:31;34.63;;;19.00;;
75356;SDS011;63946;51.986;5.930;2024-03-22T10:13:01;33.53;;;18.13;;
75356;SDS011;63946;51.986;5.930;2024-03-22T10:15:29;29.42;;;17.13;;
75356;SDS011;63946;51.986;5.930;2024-03-22T10:17:59;29.67;;;17.67;;
75356;SDS011;63946;51.986;5.930;2024-03-22T10:20:25;40.72;;;18.65;;
75356;SDS011;63946;51.986;5.930;2024-03-22T10:22:55;33.03;;;19.23;;
75356;SDS011;63946;51.986;5.930;2024-03-22T10:25:25;36.10;;;19.85;;
75356;SDS011;63946;51.986;5.930;2024-03-22T10:27:53;33.40;;;18.63;;
75356;SDS011;63946;51.986;5.930;2024-03-22T10:30:20;31.33;;;18.52;;
75356;SDS011;63946;51.986;5.930;2024-03-22T10:32:50;32.05;;;17.27;;
75356;SDS011;63946;51.986;5.930;2024-03-22T10:35:17;31.30;;;17.55;;
75356;SDS011;63946;51.986;5.930;2024-03-22T10:37:43;27.13;;;14.75;;
75356;SDS011;63946;51.986;5.930;2024-03-22T10:40:10;28.05;;;16.35;;
75356;SDS011;63946;51.986;5.930;2024-03-22T10:42:40;27.83;;;17.38;;
75356;SDS011;63946;51.986;5.930;2024-03-22T10:45:08;28.48;;;17.65;;
75356;SDS011;63946;51.986;5.930;2024-03-22T10:47:35;29.13;;;16.75;;
75356;SDS011;63946;51.986;5.930;2024-03-22T10:50:06;27.23;;;15.23;;
75356;SDS011;63946;51.986;5.930;2024-03-22T10:52:38;25.40;;;17.13;;
75356;SDS011;63946;51.986;5.930;2024-03-22T10:55:08;24.80;;;16.00;;
75356;SDS011;63946;51.986;5.930;2024-03-22T10:57:39;25.40;;;15.35;;
75356;SDS011;63946;51.986;5.930;2024-03-22T11:00:10;26.25;;;14.90;;
75356;SDS011;63946;51.986;5.930;2024-03-22T11:02:36;25.48;;;14.00;;
75356;SDS011;63946;51.986;5.930;2024-03-22T11:05:03;22.35;;;13.88;;
75356;SDS011;63946;51.986;5.930;2024-03-22T11:07:30;27.40;;;15.27;;
75356;SDS011;63946;51.986;5.930;2024-03-22T11:09:57;25.48;;;15.80;;
75356;SDS011;63946;51.986;5.930;2024-03-22T11:12:27;22.80;;;13.80;;
75356;SDS011;63946;51.986;5.930;2024-03-22T11:14:53;24.35;;;14.98;;
75356;SDS011;63946;51.986;5.930;2024-03-22T11:17:20;22.10;;;14.02;;
75356;SDS011;63946;51.986;5.930;2024-03-22T11:19:47;20.80;;;12.77;;
75356;SDS011;63946;51.986;5.930;2024-03-22T11:22:13;18.85;;;12.25;;
75356;SDS011;63946;51.986;5.930;2024-03-22T11:24:39;23.30;;;13.50;;
75356;SDS011;63946;51.986;5.930;2024-03-22T11:27:06;21.58;;;12.88;;
75356;SDS011;63946;51.986;5.930;2024-03-22T11:29:33;21.95;;;13.52;;
75356;SDS011;63946;51.986;5.930;2024-03-22T11:31:59;20.77;;;12.38;;
75356;SDS011;63946;51.986;5.930;2024-03-22T11:34:26;19.83;;;10.80;;
75356;SDS011;63946;51.986;5.930;2024-03-22T11:36:53;15.43;;;10.77;;
75356;SDS011;63946;51.986;5.930;2024-03-22T11:39:20;17.15;;;10.70;;
75356;SDS011;63946;51.986;5.930;2024-03-22T11:41:47;15.00;;;9.50;;
75356;SDS011;63946;51.986;5.930;2024-03-22T11:44:14;16.60;;;10.45;;
75356;SDS011;63946;51.986;5.930;2024-03-22T11:46:41;16.70;;;9.75;;
75356;SDS011;63946;51.986;5.930;2024-03-22T11:49:09;13.60;;;8.55;;
75356;SDS011;63946;51.986;5.930;2024-03-22T11:51:35;12.20;;;8.65;;
75356;SDS011;63946;51.986;5.930;2024-03-22T11:54:02;10.82;;;7.40;;
75356;SDS011;63946;51.986;5.930;2024-03-22T11:56:29;12.25;;;8.07;;
75356;SDS011;63946;51.986;5.930;2024-03-22T11:58:59;9.57;;;6.95;;
75356;SDS011;63946;51.986;5.930;2024-03-22T12:01:29;13.60;;;8.75;;
75356;SDS011;63946;51.986;5.930;2024-03-22T12:03:55;9.73;;;7.28;;
75356;SDS011;63946;51.986;5.930;2024-03-22T12:06:21;8.45;;;6.13;;
75356;SDS011;63946;51.986;5.930;2024-03-22T12:08:48;9.15;;;6.28;;
75356;SDS011;63946;51.986;5.930;2024-03-22T12:11:14;9.55;;;6.47;;
75356;SDS011;63946;51.986;5.930;2024-03-22T12:13:40;9.65;;;6.57;;
75356;SDS011;63946;51.986;5.930;2024-03-22T12:16:06;9.02;;;5.90;;
75356;SDS011;63946;51.986;5.930;2024-03-22T12:18:33;8.00;;;6.15;;
75356;SDS011;63946;51.986;5.930;2024-03-22T12:20:59;7.50;;;5.93;;
75356;SDS011;63946;51.986;5.930;2024-03-22T12:23:26;10.23;;;6.35;;
75356;SDS011;63946;51.986;5.930;2024-03-22T12:25:52;8.30;;;5.20;;
75356;SDS011;63946;51.986;5.930;2024-03-22T12:28:20;9.38;;;6.38;;
75356;SDS011;63946;51.986;5.930;2024-03-22T12:30:47;8.60;;;6.18;;
75356;SDS011;63946;51.986;5.930;2024-03-22T12:33:16;7.25;;;5.38;;
75356;SDS011;63946;51.986;5.930;2024-03-22T12:35:43;9.88;;;6.13;;
75356;SDS011;63946;51.986;5.930;2024-03-22T12:38:09;8.07;;;5.30;;
75356;SDS011;63946;51.986;5.930;2024-03-22T12:40:35;8.00;;;5.22;;
75356;SDS011;63946;51.986;5.930;2024-03-22T12:43:02;7.00;;;5.15;;
75356;SDS011;63946;51.986;5.930;2024-03-22T12:45:28;7.28;;;4.65;;
75356;SDS011;63946;51.986;5.930;2024-03-22T12:47:54;7.45;;;5.45;;
75356;SDS011;63946;51.986;5.930;2024-03-22T12:50:20;5.78;;;4.35;;
75356;SDS011;63946;51.986;5.930;2024-03-22T12:52:49;6.10;;;4.38;;
75356;SDS011;63946;51.986;5.930;2024-03-22T12:55:17;5.15;;;3.45;;
75356;SDS011;63946;51.986;5.930;2024-03-22T12:57:44;11.07;;;5.15;;
75356;SDS011;63946;51.986;5.930;2024-03-22T13:00:10;7.47;;;4.85;;
75356;SDS011;63946;51.986;5.930;2024-03-22T13:02:41;4.65;;;3.72;;
75356;SDS011;63946;51.986;5.930;2024-03-22T13:05:08;5.22;;;3.65;;
75356;SDS011;63946;51.986;5.930;2024-03-22T13:07:34;5.57;;;4.13;;
75356;SDS011;63946;51.986;5.930;2024-03-22T13:10:00;5.35;;;4.20;;
75356;SDS011;63946;51.986;5.930;2024-03-22T13:12:27;6.88;;;4.70;;
75356;SDS011;63946;51.986;5.930;2024-03-22T13:14:54;6.25;;;4.57;;
75356;SDS011;63946;51.986;5.930;2024-03-22T13:17:20;5.43;;;4.18;;
75356;SDS011;63946;51.986;5.930;2024-03-22T13:19:46;5.00;;;4.13;;
75356;SDS011;63946;51.986;5.930;2024-03-22T13:22:15;5.32;;;3.88;;
75356;SDS011;63946;51.986;5.930;2024-03-22T13:24:42;6.50;;;4.78;;
75356;SDS011;63946;51.986;5.930;2024-03-22T13:27:08;5.78;;;3.63;;
75356;SDS011;63946;51.986;5.930;2024-03-22T13:29:34;3.95;;;3.13;;
75356;SDS011;63946;51.986;5.930;2024-03-22T13:32:00;5.35;;;3.30;;
75356;SDS011;63946;51.986;5.930;2024-03-22T13:34:27;4.97;;;3.80;;
75356;SDS011;63946;51.986;5.930;2024-03-22T13:36:53;5.82;;;4.40;;
75356;SDS011;63946;51.986;5.930;2024-03-22T13:39:19;5.95;;;4.07;;
75356;SDS011;63946;51.986;5.930;2024-03-22T13:41:45;4.07;;;3.35;;
75356;SDS011;63946;51.986;5.930;2024-03-22T13:44:14;3.50;;;2.92;;
75356;SDS011;63946;51.986;5.930;2024-03-22T13:46:40;3.75;;;2.65;;
75356;SDS011;63946;51.986;5.930;2024-03-22T13:49:13;3.40;;;2.53;;
75356;SDS011;63946;51.986;5.930;2024-03-22T13:51:41;4.05;;;2.55;;
75356;SDS011;63946;51.986;5.930;2024-03-22T13:54:07;3.38;;;2.75;;
75356;SDS011;63946;51.986;5.930;2024-03-22T13:56:33;3.20;;;2.60;;
75356;SDS011;63946;51.986;5.930;2024-03-22T13:59:02;4.25;;;2.85;;
75356;SDS011;63946;51.986;5.930;2024-03-22T14:01:34;4.65;;;2.47;;
75356;SDS011;63946;51.986;5.930;2024-03-22T14:04:01;5.07;;;2.70;;
75356;SDS011;63946;51.986;5.930;2024-03-22T14:06:29;4.05;;;2.58;;
75356;SDS011;63946;51.986;5.930;2024-03-22T14:08:56;4.10;;;2.30;;
75356;SDS011;63946;51.986;5.930;2024-03-22T14:11:29;4.05;;;2.58;;
75356;SDS011;63946;51.986;5.930;2024-03-22T14:13:55;5.22;;;3.13;;
75356;SDS011;63946;51.986;5.930;2024-03-22T14:16:21;5.30;;;3.10;;
75356;SDS011;63946;51.986;5.930;2024-03-22T14:18:47;4.57;;;3.22;;
75356;SDS011;63946;51.986;5.930;2024-03-22T14:21:14;6.53;;;3.92;;
75356;SDS011;63946;51.986;5.930;2024-03-22T14:23:40;4.60;;;2.90;;
75356;SDS011;63946;51.986;5.930;2024-03-22T14:26:06;4.68;;;2.83;;
75356;SDS011;63946;51.986;5.930;2024-03-22T14:28:32;5.82;;;3.10;;
75356;SDS011;63946;51.986;5.930;2024-03-22T14:30:59;5.15;;;3.05;;
75356;SDS011;63946;51.986;5.930;2024-03-22T14:33:25;6.88;;;3.20;;
75356;SDS011;63946;51.986;5.930;2024-03-22T14:35:51;4.88;;;2.72;;
75356;SDS011;63946;51.986;5.930;2024-03-22T14:38:17;7.88;;;3.47;;
75356;SDS011;63946;51.986;5.930;2024-03-22T14:40:43;6.10;;;3.30;;
75356;SDS011;63946;51.986;5.930;2024-03-22T14:43:09;6.40;;;3.53;;
75356;SDS011;63946;51.986;5.930;2024-03-22T14:45:36;5.88;;;3.90;;
75356;SDS011;63946;51.986;5.930;2024-03-22T14:48:02;7.43;;;3.63;;
75356;SDS011;63946;51.986;5.930;2024-03-22T14:50:28;7.35;;;3.40;;
75356;SDS011;63946;51.986;5.930;2024-03-22T14:52:54;6.60;;;3.50;;
75356;SDS011;63946;51.986;5.930;2024-03-22T14:55:23;6.15;;;3.42;;
75356;SDS011;63946;51.986;5.930;2024-03-22T14:57:49;4.95;;;3.28;;
75356;SDS011;63946;51.986;5.930;2024-03-22T15:00:15;6.03;;;3.20;;
75356;SDS011;63946;51.986;5.930;2024-03-22T15:02:42;7.32;;;3.33;;
75356;SDS011;63946;51.986;5.930;2024-03-22T15:05:08;7.55;;;3.92;;
75356;SDS011;63946;51.986;5.930;2024-03-22T15:07:34;7.45;;;4.32;;
75356;SDS011;63946;51.986;5.930;2024-03-22T15:10:00;7.07;;;3.65;;
75356;SDS011;63946;51.986;5.930;2024-03-22T15:12:26;7.05;;;3.88;;
75356;SDS011;63946;51.986;5.930;2024-03-22T15:14:53;8.07;;;3.80;;
75356;SDS011;63946;51.986;5.930;2024-03-22T15:17:19;11.02;;;4.53;;
75356;SDS011;63946;51.986;5.930;2024-03-22T15:19:46;6.25;;;3.60;;
75356;SDS011;63946;51.986;5.930;2024-03-22T15:22:13;7.90;;;4.20;;
75356;SDS011;63946;51.986;5.930;2024-03-22T15:24:39;8.52;;;4.50;;
75356;SDS011;63946;51.986;5.930;2024-03-22T15:27:06;8.63;;;3.97;;
75356;SDS011;63946;51.986;5.930;2024-03-22T15:29:34;9.40;;;4.32;;
75356;SDS011;63946;51.986;5.930;2024-03-22T15:32:01;8.07;;;4.03;;
75356;SDS011;63946;51.986;5.930;2024-03-22T15:34:27;9.38;;;5.10;;
75356;SDS011;63946;51.986;5.930;2024-03-22T15:36:53;9.70;;;4.80;;
75356;SDS011;63946;51.986;5.930;2024-03-22T15:39:19;10.77;;;4.65;;
75356;SDS011;63946;51.986;5.930;2024-03-22T15:41:47;8.95;;;4.80;;
75356;SDS011;63946;51.986;5.930;2024-03-22T15:44:13;6.22;;;4.07;;
75356;SDS011;63946;51.986;5.930;2024-03-22T15:46:40;9.95;;;5.18;;
75356;SDS011;63946;51.986;5.930;2024-03-22T15:49:06;7.18;;;4.05;;
75356;SDS011;63946;51.986;5.930;2024-03-22T15:51:32;9.98;;;4.57;;
75356;SDS011;63946;51.986;5.930;2024-03-22T15:53:58;7.50;;;4.55;;
75356;SDS011;63946;51.986;5.930;2024-03-22T15:56:24;9.45;;;5.03;;
75356;SDS011;63946;51.986;5.930;2024-03-22T15:58:50;7.93;;;4.80;;
75356;SDS011;63946;51.986;5.930;2024-03-22T16:01:16;8.55;;;4.70;;
75356;SDS011;63946;51.986;5.930;2024-03-22T16:03:42;9.82;;;5.60;;
75356;SDS011;63946;51.986;5.930;2024-03-22T16:06:08;8.63;;;4.63;;
75356;SDS011;63946;51.986;5.930;2024-03-22T16:08:35;8.57;;;4.55;;
75356;SDS011;63946;51.986;5.930;2024-03-22T16:11:01;11.23;;;5.20;;
75356;SDS011;63946;51.986;5.930;2024-03-22T16:13:27;9.95;;;5.35;;
75356;SDS011;63946;51.986;5.930;2024-03-22T16:15:53;10.20;;;4.72;;
75356;SDS011;63946;51.986;5.930;2024-03-22T16:18:19;10.40;;;5.65;;
75356;SDS011;63946;51.986;5.930;2024-03-22T16:20:45;12.32;;;5.70;;
75356;SDS011;63946;51.986;5.930;2024-03-22T16:23:14;8.27;;;4.88;;
75356;SDS011;63946;51.986;5.930;2024-03-22T16:25:40;12.23;;;5.93;;
75356;SDS011;63946;51.986;5.930;2024-03-22T16:28:06;9.23;;;5.35;;
75356;SDS011;63946;51.986;5.930;2024-03-22T16:30:32;8.98;;;5.80;;
75356;SDS011;63946;51.986;5.930;2024-03-22T16:32:59;11.80;;;5.38;;
75356;SDS011;63946;51.986;5.930;2024-03-22T16:35:25;7.10;;;4.68;;
75356;SDS011;63946;51.986;5.930;2024-03-22T16:37:51;11.05;;;6.25;;
75356;SDS011;63946;51.986;5.930;2024-03-22T16:40:18;10.82;;;5.45;;
75356;SDS011;63946;51.986;5.930;2024-03-22T16:42:46;10.85;;;5.70;;
75356;SDS011;63946;51.986;5.930;2024-03-22T16:45:13;14.82;;;6.82;;
75356;SDS011;63946;51.986;5.930;2024-03-22T16:47:39;14.48;;;5.85;;
75356;SDS011;63946;51.986;5.930;2024-03-22T16:50:06;13.85;;;6.13;;
75356;SDS011;63946;51.986;5.930;2024-03-22T16:52:33;9.48;;;4.55;;
75356;SDS011;63946;51.986;5.930;2024-03-22T16:54:59;10.68;;;4.35;;
75356;SDS011;63946;51.986;5.930;2024-03-22T16:57:26;10.68;;;4.65;;
75356;SDS011;63946;51.986;5.930;2024-03-22T16:59:53;9.98;;;4.15;;
75356;SDS011;63946;51.986;5.930;2024-03-22T17:02:19;12.60;;;4.30;;
75356;SDS011;63946;51.986;5.930;2024-03-22T17:04:45;15.77;;;5.05;;
75356;SDS011;63946;51.986;5.930;2024-03-22T17:07:11;10.68;;;4.85;;
75356;SDS011;63946;51.986;5.930;2024-03-22T17:09:38;10.63;;;4.97;;
75356;SDS011;63946;51.986;5.930;2024-03-22T17:12:04;9.70;;;4.22;;
75356;SDS011;63946;51.986;5.930;2024-03-22T17:14:31;12.05;;;5.35;;
75356;SDS011;63946;51.986;5.930;2024-03-22T17:16:58;11.18;;;3.80;;
75356;SDS011;63946;51.986;5.930;2024-03-22T17:19:24;7.55;;;3.35;;
75356;SDS011;63946;51.986;5.930;2024-03-22T17:21:50;8.95;;;3.45;;
75356;SDS011;63946;51.986;5.930;2024-03-22T17:24:17;13.25;;;3.70;;
75356;SDS011;63946;51.986;5.930;2024-03-22T17:26:43;12.98;;;4.35;;
75356;SDS011;63946;51.986;5.930;2024-03-22T17:29:10;12.15;;;3.85;;
75356;SDS011;63946;51.986;5.930;2024-03-22T17:31:36;14.55;;;4.78;;
75356;SDS011;63946;51.986;5.930;2024-03-22T17:34:03;12.60;;;3.92;;
75356;SDS011;63946;51.986;5.930;2024-03-22T17:36:29;11.70;;;3.63;;
75356;SDS011;63946;51.986;5.930;2024-03-22T17:38:55;13.35;;;3.83;;
75356;SDS011;63946;51.986;5.930;2024-03-22T17:44:12;12.45;;;3.95;;
75356;SDS011;63946;51.986;5.930;2024-03-22T17:46:38;10.18;;;3.47;;
75356;SDS011;63946;51.986;5.930;2024-03-22T17:49:05;12.73;;;4.45;;
75356;SDS011;63946;51.986;5.930;2024-03-22T17:51:31;10.10;;;3.65;;
75356;SDS011;63946;51.986;5.930;2024-03-22T17:53:57;15.77;;;4.95;;
75356;SDS011;63946;51.986;5.930;2024-03-22T17:56:23;12.75;;;4.28;;
75356;SDS011;63946;51.986;5.930;2024-03-22T17:58:49;13.35;;;3.80;;
75356;SDS011;63946;51.986;5.930;2024-03-22T18:01:15;13.02;;;4.60;;
75356;SDS011;63946;51.986;5.930;2024-03-22T18:03:41;13.25;;;4.05;;
75356;SDS011;63946;51.986;5.930;2024-03-22T18:06:07;8.27;;;3.70;;
75356;SDS011;63946;51.986;5.930;2024-03-22T18:08:34;15.98;;;5.45;;
75356;SDS011;63946;51.986;5.930;2024-03-22T18:11:00;12.15;;;4.40;;
75356;SDS011;63946;51.986;5.930;2024-03-22T18:13:26;12.38;;;4.50;;
75356;SDS011;63946;51.986;5.930;2024-03-22T18:15:53;14.38;;;3.95;;
75356;SDS011;63946;51.986;5.930;2024-03-22T18:18:20;10.15;;;4.20;;
75356;SDS011;63946;51.986;5.930;2024-03-22T18:20:46;13.27;;;4.65;;
75356;SDS011;63946;51.986;5.930;2024-03-22T18:23:14;16.05;;;5.22;;
75356;SDS011;63946;51.986;5.930;2024-03-22T18:25:42;15.10;;;4.93;;
75356;SDS011;63946;51.986;5.930;2024-03-22T18:28:09;12.30;;;4.60;;
75356;SDS011;63946;51.986;5.930;2024-03-22T18:30:35;15.90;;;5.25;;
75356;SDS011;63946;51.986;5.930;2024-03-22T18:33:02;14.30;;;4.50;;
75356;SDS011;63946;51.986;5.930;2024-03-22T18:35:28;11.40;;;4.57;;
75356;SDS011;63946;51.986;5.930;2024-03-22T18:37:54;15.25;;;4.85;;
75356;SDS011;63946;51.986;5.930;2024-03-22T18:40:20;13.90;;;5.78;;
75356;SDS011;63946;51.986;5.930;2024-03-22T18:42:46;17.15;;;6.25;;
75356;SDS011;63946;51.986;5.930;2024-03-22T18:45:12;18.23;;;6.20;;
75356;SDS011;63946;51.986;5.930;2024-03-22T18:47:39;13.82;;;6.05;;
75356;SDS011;63946;51.986;5.930;2024-03-22T18:50:05;19.48;;;6.90;;
75356;SDS011;63946;51.986;5.930;2024-03-22T18:52:34;17.20;;;6.55;;
75356;SDS011;63946;51.986;5.930;2024-03-22T18:55:01;17.05;;;5.97;;
75356;SDS011;63946;51.986;5.930;2024-03-22T18:57:28;13.63;;;5.18;;
75356;SDS011;63946;51.986;5.930;2024-03-22T18:59:54;15.77;;;4.95;;
75356;SDS011;63946;51.986;5.930;2024-03-22T19:02:21;14.05;;;4.97;;
75356;SDS011;63946;51.986;5.930;2024-03-22T19:04:47;18.33;;;5.80;;
75356;SDS011;63946;51.986;5.930;2024-03-22T19:07:13;17.95;;;5.97;;
75356;SDS011;63946;51.986;5.930;2024-03-22T19:09:39;16.45;;;6.22;;
75356;SDS011;63946;51.986;5.930;2024-03-22T19:12:05;16.02;;;5.28;;
75356;SDS011;63946;51.986;5.930;2024-03-22T19:14:32;10.38;;;5.72;;
75356;SDS011;63946;51.986;5.930;2024-03-22T19:16:59;16.42;;;6.45;;
75356;SDS011;63946;51.986;5.930;2024-03-22T19:19:26;16.85;;;5.88;;
75356;SDS011;63946;51.986;5.930;2024-03-22T19:21:52;18.90;;;5.95;;
75356;SDS011;63946;51.986;5.930;2024-03-22T19:24:18;17.95;;;5.97;;
75356;SDS011;63946;51.986;5.930;2024-03-22T19:26:44;17.52;;;6.65;;
75356;SDS011;63946;51.986;5.930;2024-03-22T19:29:11;15.45;;;6.47;;
75356;SDS011;63946;51.986;5.930;2024-03-22T19:31:38;17.67;;;6.32;;
75356;SDS011;63946;51.986;5.930;2024-03-22T19:34:05;15.60;;;6.10;;
75356;SDS011;63946;51.986;5.930;2024-03-22T19:36:31;19.35;;;6.47;;
75356;SDS011;63946;51.986;5.930;2024-03-22T19:38:58;15.77;;;5.55;;
75356;SDS011;63946;51.986;5.930;2024-03-22T19:41:25;19.58;;;6.40;;
75356;SDS011;63946;51.986;5.930;2024-03-22T19:43:52;15.77;;;5.70;;
75356;SDS011;63946;51.986;5.930;2024-03-22T19:46:23;13.27;;;5.47;;
75356;SDS011;63946;51.986;5.930;2024-03-22T19:48:49;15.10;;;5.80;;
75356;SDS011;63946;51.986;5.930;2024-03-22T19:51:15;14.35;;;5.60;;
75356;SDS011;63946;51.986;5.930;2024-03-22T19:53:41;15.68;;;4.70;;
75356;SDS011;63946;51.986;5.930;2024-03-22T19:56:07;19.90;;;6.10;;
75356;SDS011;63946;51.986;5.930;2024-03-22T19:58:33;14.50;;;5.97;;
75356;SDS011;63946;51.986;5.930;2024-03-22T20:01:00;12.50;;;5.22;;
75356;SDS011;63946;51.986;5.930;2024-03-22T20:03:26;16.20;;;5.47;;
75356;SDS011;63946;51.986;5.930;2024-03-22T20:05:55;14.25;;;5.50;;
75356;SDS011;63946;51.986;5.930;2024-03-22T20:08:21;16.20;;;5.30;;
75356;SDS011;63946;51.986;5.930;2024-03-22T20:10:47;16.88;;;6.22;;
75356;SDS011;63946;51.986;5.930;2024-03-22T20:13:13;20.77;;;6.43;;
75356;SDS011;63946;51.986;5.930;2024-03-22T20:15:39;16.88;;;5.85;;
75356;SDS011;63946;51.986;5.930;2024-03-22T20:18:06;17.42;;;6.20;;
75356;SDS011;63946;51.986;5.930;2024-03-22T20:20:32;15.43;;;5.68;;
75356;SDS011;63946;51.986;5.930;2024-03-22T20:22:58;20.30;;;6.90;;
75356;SDS011;63946;51.986;5.930;2024-03-22T20:25:24;14.80;;;5.72;;
75356;SDS011;63946;51.986;5.930;2024-03-22T20:27:51;17.60;;;7.15;;
75356;SDS011;63946;51.986;5.930;2024-03-22T20:30:17;15.10;;;6.40;;
75356;SDS011;63946;51.986;5.930;2024-03-22T20:32:43;17.27;;;6.78;;
75356;SDS011;63946;51.986;5.930;2024-03-22T20:35:09;17.45;;;6.25;;
